6A1

Butler Municipal Airport

Butler, Georgia, USA
METAR K6A1 261335Z AUTO 25003KT 10SM 17/10 A2990 RMK AO2 T01710099
Observed Flight Rules
Apr-26 @ 13:35 UTC (8 minutes ago)
Wind Visibility
250° at 3 knots 10 miles
Temperatures Readings
Current 17°C / 63°F
Dewpoint 10°C / 50°F
Humidity 64%
Altimeter 29.9" Hg
Pressure 1013 hPa
Elevation 203
METAR K6A1 261335Z AUTO 25003KT 10SM 17/10 A2990 RMK AO2 T01710099
Observed Flight Rules
Apr-26 @ 13:35 UTC
(8 minutes ago)
Wind Visibility
250° at 3 knots 10 miles
Temperature Dewpoint
17°C / 63°F 10°C / 50°F
Humidity Altimeter Pressure
64% 29.9" Hg 1013 hPa